sensor_id;sensor_type;location;lat;lon;timestamp;P1;durP1;ratioP1;P2;durP2;ratioP2
3347;SDS011;1687;49.540;8.574;2023-11-21T00:02:22;8.73;;;2.30;;
3347;SDS011;1687;49.540;8.574;2023-11-21T00:04:48;7.37;;;2.37;;
3347;SDS011;1687;49.540;8.574;2023-11-21T00:07:14;7.83;;;2.60;;
3347;SDS011;1687;49.540;8.574;2023-11-21T00:09:40;4.63;;;2.10;;
3347;SDS011;1687;49.540;8.574;2023-11-21T00:12:06;8.47;;;3.07;;
3347;SDS011;1687;49.540;8.574;2023-11-21T00:14:36;7.43;;;2.93;;
3347;SDS011;1687;49.540;8.574;2023-11-21T00:17:03;6.83;;;2.30;;
3347;SDS011;1687;49.540;8.574;2023-11-21T00:19:30;10.13;;;2.73;;
3347;SDS011;1687;49.540;8.574;2023-11-21T00:21:56;11.53;;;3.50;;
3347;SDS011;1687;49.540;8.574;2023-11-21T00:24:23;8.30;;;2.97;;
3347;SDS011;1687;49.540;8.574;2023-11-21T00:26:49;11.50;;;3.43;;
3347;SDS011;1687;49.540;8.574;2023-11-21T00:29:16;13.73;;;2.80;;
3347;SDS011;1687;49.540;8.574;2023-11-21T00:31:43;8.40;;;2.70;;
3347;SDS011;1687;49.540;8.574;2023-11-21T00:34:11;6.30;;;2.43;;
3347;SDS011;1687;49.540;8.574;2023-11-21T00:36:37;7.83;;;2.50;;
3347;SDS011;1687;49.540;8.574;2023-11-21T00:39:03;6.50;;;2.87;;
3347;SDS011;1687;49.540;8.574;2023-11-21T00:41:30;8.70;;;2.90;;
3347;SDS011;1687;49.540;8.574;2023-11-21T00:43:57;5.53;;;2.80;;
3347;SDS011;1687;49.540;8.574;2023-11-21T00:46:24;6.87;;;2.50;;
3347;SDS011;1687;49.540;8.574;2023-11-21T00:48:52;13.40;;;2.63;;
3347;SDS011;1687;49.540;8.574;2023-11-21T00:51:19;13.73;;;3.17;;
3347;SDS011;1687;49.540;8.574;2023-11-21T00:53:45;5.10;;;2.80;;
3347;SDS011;1687;49.540;8.574;2023-11-21T00:56:11;8.23;;;2.47;;
3347;SDS011;1687;49.540;8.574;2023-11-21T00:58:38;4.03;;;2.40;;
3347;SDS011;1687;49.540;8.574;2023-11-21T01:01:07;7.97;;;3.27;;
3347;SDS011;1687;49.540;8.574;2023-11-21T01:03:33;9.53;;;3.27;;
3347;SDS011;1687;49.540;8.574;2023-11-21T01:05:59;14.60;;;4.83;;
3347;SDS011;1687;49.540;8.574;2023-11-21T01:08:24;7.87;;;2.80;;
3347;SDS011;1687;49.540;8.574;2023-11-21T01:10:50;8.93;;;3.30;;
3347;SDS011;1687;49.540;8.574;2023-11-21T01:13:16;8.70;;;3.80;;
3347;SDS011;1687;49.540;8.574;2023-11-21T01:15:41;7.10;;;2.87;;
3347;SDS011;1687;49.540;8.574;2023-11-21T01:18:07;7.50;;;2.83;;
3347;SDS011;1687;49.540;8.574;2023-11-21T01:20:36;6.87;;;3.30;;
3347;SDS011;1687;49.540;8.574;2023-11-21T01:23:01;13.13;;;3.57;;
3347;SDS011;1687;49.540;8.574;2023-11-21T01:25:27;10.37;;;3.17;;
3347;SDS011;1687;49.540;8.574;2023-11-21T01:27:53;8.47;;;2.70;;
3347;SDS011;1687;49.540;8.574;2023-11-21T01:30:18;20.97;;;2.90;;
3347;SDS011;1687;49.540;8.574;2023-11-21T01:32:44;5.13;;;2.57;;
3347;SDS011;1687;49.540;8.574;2023-11-21T01:35:10;15.20;;;2.93;;
3347;SDS011;1687;49.540;8.574;2023-11-21T01:37:36;8.37;;;3.10;;
3347;SDS011;1687;49.540;8.574;2023-11-21T01:40:03;5.73;;;2.77;;
3347;SDS011;1687;49.540;8.574;2023-11-21T01:42:33;8.87;;;3.00;;
3347;SDS011;1687;49.540;8.574;2023-11-21T01:44:59;10.73;;;2.73;;
3347;SDS011;1687;49.540;8.574;2023-11-21T01:47:29;7.93;;;2.40;;
3347;SDS011;1687;49.540;8.574;2023-11-21T01:49:57;6.83;;;2.90;;
3347;SDS011;1687;49.540;8.574;2023-11-21T01:52:23;8.63;;;3.17;;
3347;SDS011;1687;49.540;8.574;2023-11-21T01:54:49;10.97;;;2.80;;
3347;SDS011;1687;49.540;8.574;2023-11-21T01:57:15;8.00;;;2.17;;
3347;SDS011;1687;49.540;8.574;2023-11-21T01:59:41;6.90;;;2.47;;
3347;SDS011;1687;49.540;8.574;2023-11-21T02:02:08;6.43;;;2.43;;
3347;SDS011;1687;49.540;8.574;2023-11-21T02:04:35;5.00;;;2.70;;
3347;SDS011;1687;49.540;8.574;2023-11-21T02:07:01;5.97;;;2.50;;
3347;SDS011;1687;49.540;8.574;2023-11-21T02:09:32;5.67;;;3.07;;
3347;SDS011;1687;49.540;8.574;2023-11-21T02:11:58;12.90;;;3.80;;
3347;SDS011;1687;49.540;8.574;2023-11-21T02:14:25;11.80;;;2.60;;
3347;SDS011;1687;49.540;8.574;2023-11-21T02:16:53;7.73;;;2.87;;
3347;SDS011;1687;49.540;8.574;2023-11-21T02:19:20;17.33;;;3.33;;
3347;SDS011;1687;49.540;8.574;2023-11-21T02:21:50;8.67;;;3.03;;
3347;SDS011;1687;49.540;8.574;2023-11-21T02:24:19;5.17;;;2.47;;
3347;SDS011;1687;49.540;8.574;2023-11-21T02:26:48;10.03;;;2.80;;
3347;SDS011;1687;49.540;8.574;2023-11-21T02:29:21;6.20;;;3.07;;
3347;SDS011;1687;49.540;8.574;2023-11-21T02:31:53;7.50;;;3.10;;
3347;SDS011;1687;49.540;8.574;2023-11-21T02:34:20;11.07;;;3.97;;
3347;SDS011;1687;49.540;8.574;2023-11-21T02:36:47;11.97;;;3.30;;
3347;SDS011;1687;49.540;8.574;2023-11-21T02:39:16;5.23;;;2.77;;
3347;SDS011;1687;49.540;8.574;2023-11-21T02:41:43;11.57;;;3.17;;
3347;SDS011;1687;49.540;8.574;2023-11-21T02:44:09;9.40;;;3.93;;
3347;SDS011;1687;49.540;8.574;2023-11-21T02:46:36;18.70;;;3.60;;
3347;SDS011;1687;49.540;8.574;2023-11-21T02:49:05;8.03;;;3.60;;
3347;SDS011;1687;49.540;8.574;2023-11-21T02:51:32;8.97;;;3.90;;
3347;SDS011;1687;49.540;8.574;2023-11-21T02:53:58;8.77;;;3.40;;
3347;SDS011;1687;49.540;8.574;2023-11-21T02:56:27;6.60;;;3.43;;
3347;SDS011;1687;49.540;8.574;2023-11-21T02:58:55;7.00;;;4.00;;
3347;SDS011;1687;49.540;8.574;2023-11-21T03:01:21;8.60;;;4.20;;
3347;SDS011;1687;49.540;8.574;2023-11-21T03:03:49;6.43;;;3.27;;
3347;SDS011;1687;49.540;8.574;2023-11-21T03:06:16;17.23;;;3.10;;
3347;SDS011;1687;49.540;8.574;2023-11-21T03:08:45;9.60;;;3.13;;
3347;SDS011;1687;49.540;8.574;2023-11-21T03:11:11;6.43;;;3.00;;
3347;SDS011;1687;49.540;8.574;2023-11-21T03:13:41;7.17;;;2.80;;
3347;SDS011;1687;49.540;8.574;2023-11-21T03:16:10;7.60;;;3.30;;
3347;SDS011;1687;49.540;8.574;2023-11-21T03:18:37;8.37;;;2.40;;
3347;SDS011;1687;49.540;8.574;2023-11-21T03:21:04;10.53;;;2.80;;
3347;SDS011;1687;49.540;8.574;2023-11-21T03:23:31;5.43;;;2.57;;
3347;SDS011;1687;49.540;8.574;2023-11-21T03:25:57;7.03;;;4.00;;
3347;SDS011;1687;49.540;8.574;2023-11-21T03:28:23;11.97;;;3.87;;
3347;SDS011;1687;49.540;8.574;2023-11-21T03:30:48;5.53;;;2.60;;
3347;SDS011;1687;49.540;8.574;2023-11-21T03:33:14;7.77;;;3.67;;
3347;SDS011;1687;49.540;8.574;2023-11-21T03:35:40;9.23;;;3.30;;
3347;SDS011;1687;49.540;8.574;2023-11-21T03:38:07;8.17;;;3.50;;
3347;SDS011;1687;49.540;8.574;2023-11-21T03:40:33;6.37;;;3.40;;
3347;SDS011;1687;49.540;8.574;2023-11-21T03:42:58;7.40;;;3.40;;
3347;SDS011;1687;49.540;8.574;2023-11-21T03:45:24;6.50;;;2.77;;
3347;SDS011;1687;49.540;8.574;2023-11-21T03:47:50;7.00;;;2.83;;
3347;SDS011;1687;49.540;8.574;2023-11-21T03:50:15;12.83;;;3.77;;
3347;SDS011;1687;49.540;8.574;2023-11-21T03:52:41;13.53;;;2.60;;
3347;SDS011;1687;49.540;8.574;2023-11-21T03:55:07;6.73;;;3.10;;
3347;SDS011;1687;49.540;8.574;2023-11-21T03:57:33;5.30;;;2.70;;
3347;SDS011;1687;49.540;8.574;2023-11-21T03:59:59;5.93;;;2.87;;
3347;SDS011;1687;49.540;8.574;2023-11-21T04:02:25;8.13;;;3.07;;
3347;SDS011;1687;49.540;8.574;2023-11-21T04:04:51;6.87;;;3.70;;
3347;SDS011;1687;49.540;8.574;2023-11-21T04:07:17;9.00;;;3.70;;
3347;SDS011;1687;49.540;8.574;2023-11-21T04:09:43;11.93;;;3.87;;
3347;SDS011;1687;49.540;8.574;2023-11-21T04:12:08;6.47;;;2.90;;
3347;SDS011;1687;49.540;8.574;2023-11-21T04:14:34;6.60;;;3.30;;
3347;SDS011;1687;49.540;8.574;2023-11-21T04:17:00;7.40;;;3.20;;
3347;SDS011;1687;49.540;8.574;2023-11-21T04:19:26;5.63;;;3.33;;
3347;SDS011;1687;49.540;8.574;2023-11-21T04:21:52;11.33;;;2.90;;
3347;SDS011;1687;49.540;8.574;2023-11-21T04:24:17;8.20;;;3.40;;
3347;SDS011;1687;49.540;8.574;2023-11-21T04:26:43;7.27;;;3.10;;
3347;SDS011;1687;49.540;8.574;2023-11-21T04:29:09;6.33;;;3.00;;
3347;SDS011;1687;49.540;8.574;2023-11-21T04:31:35;6.20;;;3.13;;
3347;SDS011;1687;49.540;8.574;2023-11-21T04:34:00;8.77;;;4.07;;
3347;SDS011;1687;49.540;8.574;2023-11-21T04:36:27;9.93;;;4.00;;
3347;SDS011;1687;49.540;8.574;2023-11-21T04:38:53;7.80;;;3.63;;
3347;SDS011;1687;49.540;8.574;2023-11-21T04:41:18;12.53;;;2.80;;
3347;SDS011;1687;49.540;8.574;2023-11-21T04:43:44;11.13;;;2.97;;
3347;SDS011;1687;49.540;8.574;2023-11-21T04:46:10;13.30;;;5.17;;
3347;SDS011;1687;49.540;8.574;2023-11-21T04:48:36;9.17;;;3.90;;
3347;SDS011;1687;49.540;8.574;2023-11-21T04:51:01;8.13;;;3.93;;
3347;SDS011;1687;49.540;8.574;2023-11-21T04:53:29;9.30;;;3.70;;
3347;SDS011;1687;49.540;8.574;2023-11-21T04:55:54;5.50;;;3.20;;
3347;SDS011;1687;49.540;8.574;2023-11-21T04:58:20;8.70;;;3.60;;
3347;SDS011;1687;49.540;8.574;2023-11-21T05:00:46;8.23;;;3.50;;
3347;SDS011;1687;49.540;8.574;2023-11-21T05:03:11;6.10;;;3.03;;
3347;SDS011;1687;49.540;8.574;2023-11-21T05:05:37;8.53;;;3.40;;
3347;SDS011;1687;49.540;8.574;2023-11-21T05:08:03;6.43;;;3.70;;
3347;SDS011;1687;49.540;8.574;2023-11-21T05:10:30;7.57;;;3.73;;
3347;SDS011;1687;49.540;8.574;2023-11-21T05:12:55;6.97;;;3.57;;
3347;SDS011;1687;49.540;8.574;2023-11-21T05:15:21;9.43;;;3.50;;
3347;SDS011;1687;49.540;8.574;2023-11-21T05:17:48;6.70;;;3.37;;
3347;SDS011;1687;49.540;8.574;2023-11-21T05:20:17;6.80;;;3.63;;
3347;SDS011;1687;49.540;8.574;2023-11-21T05:22:45;11.30;;;3.70;;
3347;SDS011;1687;49.540;8.574;2023-11-21T05:25:13;13.43;;;4.33;;
3347;SDS011;1687;49.540;8.574;2023-11-21T05:27:39;12.57;;;4.40;;
3347;SDS011;1687;49.540;8.574;2023-11-21T05:30:05;8.67;;;4.10;;
3347;SDS011;1687;49.540;8.574;2023-11-21T05:32:31;10.13;;;3.70;;
3347;SDS011;1687;49.540;8.574;2023-11-21T05:34:58;7.27;;;3.10;;
3347;SDS011;1687;49.540;8.574;2023-11-21T05:37:24;12.20;;;3.70;;
3347;SDS011;1687;49.540;8.574;2023-11-21T05:39:51;5.70;;;2.90;;
3347;SDS011;1687;49.540;8.574;2023-11-21T05:42:21;15.20;;;3.60;;
3347;SDS011;1687;49.540;8.574;2023-11-21T05:44:48;9.33;;;3.03;;
3347;SDS011;1687;49.540;8.574;2023-11-21T05:47:14;9.00;;;3.67;;
3347;SDS011;1687;49.540;8.574;2023-11-21T05:49:40;9.27;;;3.73;;
3347;SDS011;1687;49.540;8.574;2023-11-21T05:52:05;14.43;;;4.30;;
3347;SDS011;1687;49.540;8.574;2023-11-21T05:54:32;14.83;;;4.13;;
3347;SDS011;1687;49.540;8.574;2023-11-21T05:56:57;12.20;;;3.83;;
3347;SDS011;1687;49.540;8.574;2023-11-21T05:59:24;13.17;;;4.70;;
3347;SDS011;1687;49.540;8.574;2023-11-21T06:01:50;7.47;;;4.47;;
3347;SDS011;1687;49.540;8.574;2023-11-21T06:04:15;14.13;;;3.90;;
3347;SDS011;1687;49.540;8.574;2023-11-21T06:06:41;10.70;;;5.50;;
3347;SDS011;1687;49.540;8.574;2023-11-21T06:09:07;10.37;;;4.60;;
3347;SDS011;1687;49.540;8.574;2023-11-21T06:11:34;7.00;;;4.07;;
3347;SDS011;1687;49.540;8.574;2023-11-21T06:14:00;8.23;;;4.43;;
3347;SDS011;1687;49.540;8.574;2023-11-21T06:16:26;12.17;;;4.40;;
3347;SDS011;1687;49.540;8.574;2023-11-21T06:18:52;13.07;;;4.70;;
3347;SDS011;1687;49.540;8.574;2023-11-21T06:21:18;16.23;;;5.83;;
3347;SDS011;1687;49.540;8.574;2023-11-21T06:23:44;9.30;;;4.90;;
3347;SDS011;1687;49.540;8.574;2023-11-21T06:26:10;17.53;;;6.07;;
3347;SDS011;1687;49.540;8.574;2023-11-21T06:28:35;10.10;;;5.03;;
3347;SDS011;1687;49.540;8.574;2023-11-21T06:31:01;14.43;;;5.13;;
3347;SDS011;1687;49.540;8.574;2023-11-21T06:33:30;10.47;;;5.03;;
3347;SDS011;1687;49.540;8.574;2023-11-21T06:35:57;18.33;;;5.70;;
3347;SDS011;1687;49.540;8.574;2023-11-21T06:38:23;15.67;;;6.20;;
3347;SDS011;1687;49.540;8.574;2023-11-21T06:40:48;16.37;;;5.77;;
3347;SDS011;1687;49.540;8.574;2023-11-21T06:43:14;11.43;;;5.13;;
3347;SDS011;1687;49.540;8.574;2023-11-21T06:45:40;17.70;;;6.50;;
3347;SDS011;1687;49.540;8.574;2023-11-21T06:48:06;13.37;;;6.33;;
3347;SDS011;1687;49.540;8.574;2023-11-21T06:50:32;13.90;;;6.10;;
3347;SDS011;1687;49.540;8.574;2023-11-21T06:52:57;11.67;;;5.73;;
3347;SDS011;1687;49.540;8.574;2023-11-21T06:55:23;16.93;;;6.30;;
3347;SDS011;1687;49.540;8.574;2023-11-21T06:57:48;15.90;;;6.23;;
3347;SDS011;1687;49.540;8.574;2023-11-21T07:00:17;13.33;;;6.47;;
3347;SDS011;1687;49.540;8.574;2023-11-21T07:02:43;12.87;;;6.40;;
3347;SDS011;1687;49.540;8.574;2023-11-21T07:05:09;16.70;;;6.20;;
3347;SDS011;1687;49.540;8.574;2023-11-21T07:07:36;11.80;;;5.80;;
3347;SDS011;1687;49.540;8.574;2023-11-21T07:10:02;11.87;;;5.30;;
3347;SDS011;1687;49.540;8.574;2023-11-21T07:12:31;14.73;;;6.03;;
3347;SDS011;1687;49.540;8.574;2023-11-21T07:14:57;11.97;;;5.87;;
3347;SDS011;1687;49.540;8.574;2023-11-21T07:17:23;13.93;;;6.10;;
3347;SDS011;1687;49.540;8.574;2023-11-21T07:19:49;10.17;;;5.53;;
3347;SDS011;1687;49.540;8.574;2023-11-21T07:22:15;19.13;;;5.53;;
3347;SDS011;1687;49.540;8.574;2023-11-21T07:24:48;11.93;;;5.77;;
3347;SDS011;1687;49.540;8.574;2023-11-21T07:27:15;7.77;;;4.40;;
3347;SDS011;1687;49.540;8.574;2023-11-21T07:29:42;18.13;;;4.10;;
3347;SDS011;1687;49.540;8.574;2023-11-21T07:32:07;11.07;;;4.70;;
3347;SDS011;1687;49.540;8.574;2023-11-21T07:34:34;8.57;;;4.20;;
3347;SDS011;1687;49.540;8.574;2023-11-21T07:37:01;11.83;;;5.40;;
3347;SDS011;1687;49.540;8.574;2023-11-21T07:39:27;9.17;;;4.03;;
3347;SDS011;1687;49.540;8.574;2023-11-21T07:41:53;8.13;;;4.73;;
3347;SDS011;1687;49.540;8.574;2023-11-21T07:44:20;12.93;;;4.70;;
3347;SDS011;1687;49.540;8.574;2023-11-21T07:46:46;9.27;;;3.57;;
3347;SDS011;1687;49.540;8.574;2023-11-21T07:49:14;8.37;;;4.27;;
3347;SDS011;1687;49.540;8.574;2023-11-21T07:51:42;10.77;;;3.93;;
3347;SDS011;1687;49.540;8.574;2023-11-21T07:54:08;8.33;;;4.77;;
3347;SDS011;1687;49.540;8.574;2023-11-21T07:56:35;9.50;;;4.13;;
3347;SDS011;1687;49.540;8.574;2023-11-21T07:59:00;10.53;;;5.10;;
3347;SDS011;1687;49.540;8.574;2023-11-21T08:01:26;11.83;;;3.90;;
3347;SDS011;1687;49.540;8.574;2023-11-21T08:03:53;12.87;;;4.70;;
3347;SDS011;1687;49.540;8.574;2023-11-21T08:06:22;9.80;;;4.63;;
3347;SDS011;1687;49.540;8.574;2023-11-21T08:08:49;7.67;;;3.57;;
3347;SDS011;1687;49.540;8.574;2023-11-21T08:11:15;11.23;;;4.80;;
3347;SDS011;1687;49.540;8.574;2023-11-21T08:13:41;10.60;;;4.23;;
3347;SDS011;1687;49.540;8.574;2023-11-21T08:16:07;7.70;;;4.20;;
3347;SDS011;1687;49.540;8.574;2023-11-21T08:18:33;7.80;;;4.20;;
3347;SDS011;1687;49.540;8.574;2023-11-21T08:20:59;7.87;;;3.37;;
3347;SDS011;1687;49.540;8.574;2023-11-21T08:23:25;8.50;;;4.30;;
3347;SDS011;1687;49.540;8.574;2023-11-21T08:25:51;10.13;;;4.37;;
3347;SDS011;1687;49.540;8.574;2023-11-21T08:28:18;8.07;;;3.70;;
3347;SDS011;1687;49.540;8.574;2023-11-21T08:30:47;10.90;;;4.07;;
3347;SDS011;1687;49.540;8.574;2023-11-21T08:33:12;6.10;;;3.43;;
3347;SDS011;1687;49.540;8.574;2023-11-21T08:35:38;7.10;;;3.40;;
3347;SDS011;1687;49.540;8.574;2023-11-21T08:38:04;7.77;;;3.10;;
3347;SDS011;1687;49.540;8.574;2023-11-21T08:40:30;8.80;;;4.07;;
3347;SDS011;1687;49.540;8.574;2023-11-21T08:42:55;9.93;;;4.80;;
3347;SDS011;1687;49.540;8.574;2023-11-21T08:45:23;7.43;;;3.77;;
3347;SDS011;1687;49.540;8.574;2023-11-21T08:47:51;5.40;;;2.90;;
3347;SDS011;1687;49.540;8.574;2023-11-21T08:50:16;13.80;;;2.07;;
3347;SDS011;1687;49.540;8.574;2023-11-21T08:52:43;3.90;;;1.73;;
3347;SDS011;1687;49.540;8.574;2023-11-21T08:55:11;12.17;;;2.33;;
3347;SDS011;1687;49.540;8.574;2023-11-21T08:57:38;5.03;;;1.97;;
3347;SDS011;1687;49.540;8.574;2023-11-21T09:00:05;5.27;;;1.97;;
3347;SDS011;1687;49.540;8.574;2023-11-21T09:02:36;3.00;;;1.57;;
3347;SDS011;1687;49.540;8.574;2023-11-21T09:05:05;2.73;;;1.40;;
3347;SDS011;1687;49.540;8.574;2023-11-21T09:07:32;7.17;;;1.50;;
3347;SDS011;1687;49.540;8.574;2023-11-21T09:09:58;5.60;;;1.70;;
3347;SDS011;1687;49.540;8.574;2023-11-21T09:12:23;3.10;;;1.53;;
3347;SDS011;1687;49.540;8.574;2023-11-21T09:14:52;7.10;;;1.90;;
3347;SDS011;1687;49.540;8.574;2023-11-21T09:17:18;2.67;;;1.60;;
3347;SDS011;1687;49.540;8.574;2023-11-21T09:19:44;4.70;;;2.40;;
3347;SDS011;1687;49.540;8.574;2023-11-21T09:22:16;4.53;;;2.10;;
3347;SDS011;1687;49.540;8.574;2023-11-21T09:24:42;7.87;;;4.27;;
3347;SDS011;1687;49.540;8.574;2023-11-21T09:27:08;11.73;;;6.13;;
3347;SDS011;1687;49.540;8.574;2023-11-21T09:29:35;7.00;;;3.07;;
3347;SDS011;1687;49.540;8.574;2023-11-21T09:32:03;4.23;;;2.07;;
3347;SDS011;1687;49.540;8.574;2023-11-21T09:34:31;3.27;;;1.73;;
3347;SDS011;1687;49.540;8.574;2023-11-21T09:37:03;7.80;;;3.00;;
3347;SDS011;1687;49.540;8.574;2023-11-21T09:39:32;10.40;;;2.53;;
3347;SDS011;1687;49.540;8.574;2023-11-21T09:42:04;6.60;;;3.20;;
3347;SDS011;1687;49.540;8.574;2023-11-21T09:44:38;8.20;;;4.17;;
3347;SDS011;1687;49.540;8.574;2023-11-21T09:47:16;8.87;;;3.40;;
3347;SDS011;1687;49.540;8.574;2023-11-21T09:49:46;7.30;;;3.43;;
3347;SDS011;1687;49.540;8.574;2023-11-21T09:52:26;13.63;;;4.50;;
3347;SDS011;1687;49.540;8.574;2023-11-21T09:54:53;11.10;;;5.13;;
3347;SDS011;1687;49.540;8.574;2023-11-21T09:57:23;10.90;;;5.63;;
3347;SDS011;1687;49.540;8.574;2023-11-21T09:59:54;12.07;;;3.90;;
3347;SDS011;1687;49.540;8.574;2023-11-21T10:02:24;8.20;;;4.00;;
3347;SDS011;1687;49.540;8.574;2023-11-21T10:04:54;8.10;;;4.43;;
3347;SDS011;1687;49.540;8.574;2023-11-21T10:07:21;12.90;;;4.67;;
3347;SDS011;1687;49.540;8.574;2023-11-21T10:09:48;10.00;;;4.40;;
3347;SDS011;1687;49.540;8.574;2023-11-21T10:12:16;10.00;;;5.10;;
3347;SDS011;1687;49.540;8.574;2023-11-21T10:14:42;15.87;;;5.17;;
3347;SDS011;1687;49.540;8.574;2023-11-21T10:17:12;9.50;;;5.43;;
3347;SDS011;1687;49.540;8.574;2023-11-21T10:19:51;22.90;;;5.60;;
3347;SDS011;1687;49.540;8.574;2023-11-21T10:22:19;12.47;;;6.60;;
3347;SDS011;1687;49.540;8.574;2023-11-21T10:24:45;13.67;;;5.50;;
3347;SDS011;1687;49.540;8.574;2023-11-21T10:27:11;13.80;;;5.80;;
3347;SDS011;1687;49.540;8.574;2023-11-21T10:29:38;12.80;;;5.37;;
3347;SDS011;1687;49.540;8.574;2023-11-21T10:32:04;11.83;;;5.20;;
3347;SDS011;1687;49.540;8.574;2023-11-21T10:34:30;12.73;;;6.13;;
3347;SDS011;1687;49.540;8.574;2023-11-21T10:36:56;20.03;;;5.70;;
3347;SDS011;1687;49.540;8.574;2023-11-21T10:39:23;12.20;;;5.87;;
3347;SDS011;1687;49.540;8.574;2023-11-21T10:41:54;11.73;;;6.20;;
3347;SDS011;1687;49.540;8.574;2023-11-21T10:44:20;14.70;;;5.50;;
3347;SDS011;1687;49.540;8.574;2023-11-21T10:46:49;8.97;;;4.97;;
3347;SDS011;1687;49.540;8.574;2023-11-21T10:49:22;8.07;;;3.80;;
3347;SDS011;1687;49.540;8.574;2023-11-21T10:51:50;9.20;;;5.30;;
3347;SDS011;1687;49.540;8.574;2023-11-21T10:54:21;10.67;;;5.10;;
3347;SDS011;1687;49.540;8.574;2023-11-21T10:56:53;9.43;;;5.27;;
3347;SDS011;1687;49.540;8.574;2023-11-21T10:59:24;12.80;;;5.07;;
3347;SDS011;1687;49.540;8.574;2023-11-21T11:01:55;16.70;;;5.43;;
3347;SDS011;1687;49.540;8.574;2023-11-21T11:04:24;10.40;;;4.50;;
3347;SDS011;1687;49.540;8.574;2023-11-21T11:06:54;9.17;;;4.30;;
3347;SDS011;1687;49.540;8.574;2023-11-21T11:09:22;11.10;;;5.50;;
3347;SDS011;1687;49.540;8.574;2023-11-21T11:11:48;10.13;;;5.63;;
3347;SDS011;1687;49.540;8.574;2023-11-21T11:14:16;13.37;;;5.33;;
3347;SDS011;1687;49.540;8.574;2023-11-21T11:16:44;10.40;;;5.63;;
3347;SDS011;1687;49.540;8.574;2023-11-21T11:19:10;12.33;;;5.40;;
3347;SDS011;1687;49.540;8.574;2023-11-21T11:21:42;10.03;;;5.07;;
3347;SDS011;1687;49.540;8.574;2023-11-21T11:24:33;8.00;;;3.90;;
3347;SDS011;1687;49.540;8.574;2023-11-21T11:27:24;12.60;;;4.73;;
3347;SDS011;1687;49.540;8.574;2023-11-21T11:30:22;9.57;;;4.70;;
3347;SDS011;1687;49.540;8.574;2023-11-21T11:33:09;15.40;;;5.30;;
3347;SDS011;1687;49.540;8.574;2023-11-21T11:36:10;10.53;;;4.60;;
3347;SDS011;1687;49.540;8.574;2023-11-21T11:38:53;9.20;;;4.90;;
3347;SDS011;1687;49.540;8.574;2023-11-21T11:41:30;9.07;;;4.77;;
3347;SDS011;1687;49.540;8.574;2023-11-21T11:44:02;9.27;;;5.00;;
3347;SDS011;1687;49.540;8.574;2023-11-21T11:46:43;11.20;;;4.20;;
3347;SDS011;1687;49.540;8.574;2023-11-21T11:49:27;8.50;;;4.07;;
3347;SDS011;1687;49.540;8.574;2023-11-21T11:55:05;6.70;;;3.63;;
3347;SDS011;1687;49.540;8.574;2023-11-21T11:57:35;7.97;;;4.07;;
3347;SDS011;1687;49.540;8.574;2023-11-21T12:02:37;14.73;;;4.83;;
3347;SDS011;1687;49.540;8.574;2023-11-21T12:05:16;8.87;;;4.90;;
3347;SDS011;1687;49.540;8.574;2023-11-21T12:10:23;10.90;;;5.87;;
3347;SDS011;1687;49.540;8.574;2023-11-21T12:13:00;13.33;;;4.53;;
3347;SDS011;1687;49.540;8.574;2023-11-21T12:15:32;9.33;;;3.70;;
3347;SDS011;1687;49.540;8.574;2023-11-21T12:18:01;9.93;;;5.17;;
3347;SDS011;1687;49.540;8.574;2023-11-21T12:20:28;10.43;;;4.23;;
3347;SDS011;1687;49.540;8.574;2023-11-21T12:22:56;10.60;;;4.23;;
3347;SDS011;1687;49.540;8.574;2023-11-21T12:25:27;7.97;;;4.70;;
3347;SDS011;1687;49.540;8.574;2023-11-21T12:27:56;8.20;;;4.10;;
3347;SDS011;1687;49.540;8.574;2023-11-21T12:30:24;8.10;;;4.10;;
3347;SDS011;1687;49.540;8.574;2023-11-21T12:32:55;7.20;;;3.90;;
3347;SDS011;1687;49.540;8.574;2023-11-21T12:35:27;11.00;;;5.20;;
3347;SDS011;1687;49.540;8.574;2023-11-21T12:37:55;7.80;;;4.10;;
3347;SDS011;1687;49.540;8.574;2023-11-21T12:40:23;8.40;;;4.23;;
3347;SDS011;1687;49.540;8.574;2023-11-21T12:42:51;6.63;;;3.90;;
3347;SDS011;1687;49.540;8.574;2023-11-21T12:45:23;8.07;;;4.30;;
3347;SDS011;1687;49.540;8.574;2023-11-21T12:50:24;8.53;;;3.60;;
3347;SDS011;1687;49.540;8.574;2023-11-21T12:52:59;7.50;;;3.40;;
3347;SDS011;1687;49.540;8.574;2023-11-21T12:55:29;4.43;;;2.90;;
3347;SDS011;1687;49.540;8.574;2023-11-21T12:58:02;24.23;;;3.57;;
3347;SDS011;1687;49.540;8.574;2023-11-21T13:00:35;6.10;;;2.83;;
3347;SDS011;1687;49.540;8.574;2023-11-21T13:03:05;10.43;;;3.37;;
3347;SDS011;1687;49.540;8.574;2023-11-21T13:05:34;10.43;;;4.77;;
3347;SDS011;1687;49.540;8.574;2023-11-21T13:08:07;4.17;;;2.30;;
3347;SDS011;1687;49.540;8.574;2023-11-21T13:10:38;6.47;;;3.33;;
3347;SDS011;1687;49.540;8.574;2023-11-21T13:13:07;4.20;;;2.47;;
3347;SDS011;1687;49.540;8.574;2023-11-21T13:15:39;5.37;;;2.73;;
3347;SDS011;1687;49.540;8.574;2023-11-21T13:18:08;4.83;;;2.80;;
3347;SDS011;1687;49.540;8.574;2023-11-21T13:20:36;7.17;;;3.93;;
3347;SDS011;1687;49.540;8.574;2023-11-21T13:23:06;5.37;;;2.93;;
3347;SDS011;1687;49.540;8.574;2023-11-21T13:25:33;6.73;;;2.77;;
3347;SDS011;1687;49.540;8.574;2023-11-21T13:27:59;8.33;;;3.53;;
3347;SDS011;1687;49.540;8.574;2023-11-21T13:30:26;7.23;;;3.50;;
3347;SDS011;1687;49.540;8.574;2023-11-21T13:32:58;7.67;;;3.17;;
3347;SDS011;1687;49.540;8.574;2023-11-21T13:35:31;11.40;;;3.97;;
3347;SDS011;1687;49.540;8.574;2023-11-21T13:38:07;7.93;;;4.20;;
3347;SDS011;1687;49.540;8.574;2023-11-21T13:40:35;7.30;;;3.63;;
3347;SDS011;1687;49.540;8.574;2023-11-21T13:43:11;8.10;;;3.67;;
3347;SDS011;1687;49.540;8.574;2023-11-21T13:45:38;6.80;;;3.30;;
3347;SDS011;1687;49.540;8.574;2023-11-21T13:48:05;4.60;;;2.63;;
3347;SDS011;1687;49.540;8.574;2023-11-21T13:50:38;6.10;;;2.73;;
3347;SDS011;1687;49.540;8.574;2023-11-21T13:53:09;9.50;;;2.90;;
3347;SDS011;1687;49.540;8.574;2023-11-21T13:55:47;7.73;;;2.73;;
3347;SDS011;1687;49.540;8.574;2023-11-21T13:58:22;7.90;;;3.77;;
3347;SDS011;1687;49.540;8.574;2023-11-21T14:00:59;7.00;;;2.53;;
3347;SDS011;1687;49.540;8.574;2023-11-21T14:03:30;4.33;;;2.17;;
3347;SDS011;1687;49.540;8.574;2023-11-21T14:06:09;9.83;;;2.57;;
3347;SDS011;1687;49.540;8.574;2023-11-21T14:08:39;6.23;;;2.70;;
3347;SDS011;1687;49.540;8.574;2023-11-21T14:11:06;5.40;;;3.20;;
3347;SDS011;1687;49.540;8.574;2023-11-21T14:13:32;4.80;;;2.57;;
3347;SDS011;1687;49.540;8.574;2023-11-21T14:15:58;11.23;;;3.30;;
3347;SDS011;1687;49.540;8.574;2023-11-21T14:18:26;7.70;;;3.23;;
3347;SDS011;1687;49.540;8.574;2023-11-21T14:20:56;7.53;;;3.00;;
3347;SDS011;1687;49.540;8.574;2023-11-21T14:23:22;6.23;;;3.03;;
3347;SDS011;1687;49.540;8.574;2023-11-21T14:25:48;10.13;;;2.87;;
3347;SDS011;1687;49.540;8.574;2023-11-21T14:28:15;8.50;;;3.10;;
3347;SDS011;1687;49.540;8.574;2023-11-21T14:30:40;5.97;;;2.40;;
3347;SDS011;1687;49.540;8.574;2023-11-21T14:33:07;13.67;;;3.23;;
3347;SDS011;1687;49.540;8.574;2023-11-21T14:35:34;12.63;;;2.57;;
3347;SDS011;1687;49.540;8.574;2023-11-21T14:38:00;7.93;;;2.50;;
3347;SDS011;1687;49.540;8.574;2023-11-21T14:40:29;15.67;;;3.43;;
3347;SDS011;1687;49.540;8.574;2023-11-21T14:43:02;11.20;;;3.10;;
3347;SDS011;1687;49.540;8.574;2023-11-21T14:45:32;7.80;;;3.17;;
3347;SDS011;1687;49.540;8.574;2023-11-21T14:47:58;9.67;;;2.90;;
3347;SDS011;1687;49.540;8.574;2023-11-21T14:50:31;10.27;;;3.57;;
3347;SDS011;1687;49.540;8.574;2023-11-21T14:53:07;8.10;;;3.20;;
3347;SDS011;1687;49.540;8.574;2023-11-21T14:55:35;8.20;;;3.20;;
3347;SDS011;1687;49.540;8.574;2023-11-21T14:58:16;13.10;;;3.17;;
3347;SDS011;1687;49.540;8.574;2023-11-21T15:00:51;11.33;;;3.90;;
3347;SDS011;1687;49.540;8.574;2023-11-21T15:03:27;12.13;;;4.10;;
3347;SDS011;1687;49.540;8.574;2023-11-21T15:05:57;11.37;;;3.77;;
3347;SDS011;1687;49.540;8.574;2023-11-21T15:09:04;10.00;;;3.77;;
3347;SDS011;1687;49.540;8.574;2023-11-21T15:11:50;7.20;;;3.73;;
3347;SDS011;1687;49.540;8.574;2023-11-21T15:14:19;6.90;;;3.63;;
3347;SDS011;1687;49.540;8.574;2023-11-21T15:16:50;10.33;;;4.40;;
3347;SDS011;1687;49.540;8.574;2023-11-21T15:19:18;9.07;;;3.80;;
3347;SDS011;1687;49.540;8.574;2023-11-21T15:21:50;16.40;;;4.70;;
3347;SDS011;1687;49.540;8.574;2023-11-21T15:24:15;11.20;;;4.90;;
3347;SDS011;1687;49.540;8.574;2023-11-21T15:26:41;13.23;;;4.33;;
3347;SDS011;1687;49.540;8.574;2023-11-21T15:29:07;15.27;;;4.40;;